sensor_id;sensor_type;location;lat;lon;timestamp;temperature;humidity
59857;DHT22;45733;52.668;6.860;2023-04-01T00:00:30;10.70;99.90
59857;DHT22;45733;52.668;6.860;2023-04-01T00:02:56;10.70;99.90
59857;DHT22;45733;52.668;6.860;2023-04-01T00:05:22;10.60;99.90
59857;DHT22;45733;52.668;6.860;2023-04-01T00:07:50;10.60;99.90
59857;DHT22;45733;52.668;6.860;2023-04-01T00:10:16;10.60;99.90
59857;DHT22;45733;52.668;6.860;2023-04-01T00:12:42;10.70;99.90
59857;DHT22;45733;52.668;6.860;2023-04-01T00:15:11;10.60;99.90
59857;DHT22;45733;52.668;6.860;2023-04-01T00:17:37;10.70;99.90
59857;DHT22;45733;52.668;6.860;2023-04-01T00:20:04;10.70;99.90
59857;DHT22;45733;52.668;6.860;2023-04-01T00:22:30;10.70;99.90
59857;DHT22;45733;52.668;6.860;2023-04-01T00:24:56;10.60;99.90
59857;DHT22;45733;52.668;6.860;2023-04-01T00:27:22;10.60;99.90
59857;DHT22;45733;52.668;6.860;2023-04-01T00:29:48;10.60;99.90
59857;DHT22;45733;52.668;6.860;2023-04-01T00:32:14;10.60;99.90
59857;DHT22;45733;52.668;6.860;2023-04-01T00:34:40;10.50;99.90
59857;DHT22;45733;52.668;6.860;2023-04-01T00:37:07;10.50;99.90
59857;DHT22;45733;52.668;6.860;2023-04-01T00:39:33;10.50;99.90
59857;DHT22;45733;52.668;6.860;2023-04-01T00:42:00;10.50;99.90
59857;DHT22;45733;52.668;6.860;2023-04-01T00:44:31;10.50;99.90
59857;DHT22;45733;52.668;6.860;2023-04-01T00:46:58;10.50;99.90
59857;DHT22;45733;52.668;6.860;2023-04-01T00:49:28;10.50;99.90
59857;DHT22;45733;52.668;6.860;2023-04-01T00:51:57;10.40;99.90
59857;DHT22;45733;52.668;6.860;2023-04-01T00:54:25;10.50;99.90
59857;DHT22;45733;52.668;6.860;2023-04-01T00:57:41;10.40;99.90
59857;DHT22;45733;52.668;6.860;2023-04-01T00:59:48;10.40;99.90
59857;DHT22;45733;52.668;6.860;2023-04-01T01:02:16;10.50;99.90
59857;DHT22;45733;52.668;6.860;2023-04-01T01:04:42;10.60;99.90
59857;DHT22;45733;52.668;6.860;2023-04-01T01:28:53;10.50;99.90
59857;DHT22;45733;52.668;6.860;2023-04-01T01:36:33;10.40;99.90
59857;DHT22;45733;52.668;6.860;2023-04-01T01:39:04;10.50;99.90
59857;DHT22;45733;52.668;6.860;2023-04-01T01:41:32;10.50;99.90
59857;DHT22;45733;52.668;6.860;2023-04-01T01:44:02;10.60;99.90
59857;DHT22;45733;52.668;6.860;2023-04-01T01:46:30;10.50;99.90
59857;DHT22;45733;52.668;6.860;2023-04-01T01:48:57;10.40;99.90
59857;DHT22;45733;52.668;6.860;2023-04-01T01:51:24;10.50;99.90
59857;DHT22;45733;52.668;6.860;2023-04-01T01:53:52;10.50;99.90
59857;DHT22;45733;52.668;6.860;2023-04-01T01:56:18;10.40;99.90
59857;DHT22;45733;52.668;6.860;2023-04-01T01:58:52;10.50;99.90
59857;DHT22;45733;52.668;6.860;2023-04-01T02:01:24;10.40;99.90
59857;DHT22;45733;52.668;6.860;2023-04-01T02:03:52;10.40;99.90
59857;DHT22;45733;52.668;6.860;2023-04-01T02:06:21;10.50;99.90
59857;DHT22;45733;52.668;6.860;2023-04-01T02:11:19;10.30;99.90
59857;DHT22;45733;52.668;6.860;2023-04-01T02:14:00;10.50;99.90
59857;DHT22;45733;52.668;6.860;2023-04-01T02:19:06;10.30;99.90
59857;DHT22;45733;52.668;6.860;2023-04-01T02:21:35;10.40;99.90
59857;DHT22;45733;52.668;6.860;2023-04-01T02:24:05;10.50;99.90
59857;DHT22;45733;52.668;6.860;2023-04-01T02:26:32;10.50;99.90
59857;DHT22;45733;52.668;6.860;2023-04-01T02:29:01;10.40;99.90
59857;DHT22;45733;52.668;6.860;2023-04-01T02:31:27;10.50;99.90
59857;DHT22;45733;52.668;6.860;2023-04-01T02:33:54;10.40;99.90
59857;DHT22;45733;52.668;6.860;2023-04-01T02:36:20;10.40;99.90
59857;DHT22;45733;52.668;6.860;2023-04-01T02:38:46;10.40;99.90
59857;DHT22;45733;52.668;6.860;2023-04-01T02:41:13;10.50;99.90
59857;DHT22;45733;52.668;6.860;2023-04-01T02:43:39;10.50;99.90
59857;DHT22;45733;52.668;6.860;2023-04-01T02:46:04;10.40;99.90
59857;DHT22;45733;52.668;6.860;2023-04-01T02:48:30;10.50;99.90
59857;DHT22;45733;52.668;6.860;2023-04-01T02:50:56;10.60;99.90
59857;DHT22;45733;52.668;6.860;2023-04-01T02:53:22;10.50;99.90
59857;DHT22;45733;52.668;6.860;2023-04-01T02:55:48;10.40;99.90
59857;DHT22;45733;52.668;6.860;2023-04-01T02:58:16;10.40;99.90
59857;DHT22;45733;52.668;6.860;2023-04-01T03:00:42;10.50;99.90
59857;DHT22;45733;52.668;6.860;2023-04-01T03:03:08;10.50;99.90
59857;DHT22;45733;52.668;6.860;2023-04-01T03:05:34;10.60;99.90
59857;DHT22;45733;52.668;6.860;2023-04-01T03:08:00;10.50;99.90
59857;DHT22;45733;52.668;6.860;2023-04-01T03:10:26;10.50;99.90
59857;DHT22;45733;52.668;6.860;2023-04-01T03:12:52;10.60;99.90
59857;DHT22;45733;52.668;6.860;2023-04-01T03:15:18;10.50;99.90
59857;DHT22;45733;52.668;6.860;2023-04-01T03:17:43;10.60;99.90
59857;DHT22;45733;52.668;6.860;2023-04-01T03:20:10;10.60;99.90
59857;DHT22;45733;52.668;6.860;2023-04-01T03:22:36;10.60;99.90
59857;DHT22;45733;52.668;6.860;2023-04-01T03:25:03;10.60;99.90
59857;DHT22;45733;52.668;6.860;2023-04-01T03:27:35;10.50;99.90
59857;DHT22;45733;52.668;6.860;2023-04-01T03:30:02;10.50;99.90
59857;DHT22;45733;52.668;6.860;2023-04-01T03:32:28;10.50;99.90
59857;DHT22;45733;52.668;6.860;2023-04-01T03:34:54;10.50;99.90
59857;DHT22;45733;52.668;6.860;2023-04-01T03:37:20;10.50;99.90
59857;DHT22;45733;52.668;6.860;2023-04-01T03:39:45;10.50;99.90
59857;DHT22;45733;52.668;6.860;2023-04-01T03:42:12;10.50;99.90
59857;DHT22;45733;52.668;6.860;2023-04-01T03:44:37;10.60;99.90
59857;DHT22;45733;52.668;6.860;2023-04-01T03:47:03;10.50;99.90
59857;DHT22;45733;52.668;6.860;2023-04-01T03:49:29;10.50;99.90
59857;DHT22;45733;52.668;6.860;2023-04-01T03:51:54;10.60;99.90
59857;DHT22;45733;52.668;6.860;2023-04-01T03:54:20;10.50;99.90
59857;DHT22;45733;52.668;6.860;2023-04-01T03:56:46;10.60;99.90
59857;DHT22;45733;52.668;6.860;2023-04-01T03:59:12;10.60;99.90
59857;DHT22;45733;52.668;6.860;2023-04-01T04:01:38;10.40;99.90
59857;DHT22;45733;52.668;6.860;2023-04-01T04:04:04;10.50;99.90
59857;DHT22;45733;52.668;6.860;2023-04-01T04:06:30;10.30;99.90
59857;DHT22;45733;52.668;6.860;2023-04-01T04:08:55;10.40;99.90
59857;DHT22;45733;52.668;6.860;2023-04-01T04:11:21;10.50;99.90
59857;DHT22;45733;52.668;6.860;2023-04-01T04:13:47;10.40;99.90
59857;DHT22;45733;52.668;6.860;2023-04-01T04:16:14;10.30;99.90
59857;DHT22;45733;52.668;6.860;2023-04-01T04:18:40;10.20;99.90
59857;DHT22;45733;52.668;6.860;2023-04-01T04:21:06;10.40;99.90
59857;DHT22;45733;52.668;6.860;2023-04-01T04:23:32;10.20;99.90
59857;DHT22;45733;52.668;6.860;2023-04-01T04:26:05;10.30;99.90
59857;DHT22;45733;52.668;6.860;2023-04-01T04:28:31;10.20;99.90
59857;DHT22;45733;52.668;6.860;2023-04-01T04:30:57;10.50;99.90
59857;DHT22;45733;52.668;6.860;2023-04-01T04:33:24;10.30;99.90
59857;DHT22;45733;52.668;6.860;2023-04-01T04:35:50;10.40;99.90
59857;DHT22;45733;52.668;6.860;2023-04-01T04:38:16;10.50;99.90
59857;DHT22;45733;52.668;6.860;2023-04-01T04:40:47;10.40;99.90
59857;DHT22;45733;52.668;6.860;2023-04-01T04:43:14;10.40;99.90
59857;DHT22;45733;52.668;6.860;2023-04-01T04:45:40;10.20;99.90
59857;DHT22;45733;52.668;6.860;2023-04-01T04:48:11;10.30;99.90
59857;DHT22;45733;52.668;6.860;2023-04-01T04:50:41;10.30;99.90
59857;DHT22;45733;52.668;6.860;2023-04-01T04:53:10;10.30;99.90
59857;DHT22;45733;52.668;6.860;2023-04-01T04:55:36;10.50;99.90
59857;DHT22;45733;52.668;6.860;2023-04-01T04:58:01;10.30;99.90
59857;DHT22;45733;52.668;6.860;2023-04-01T05:00:27;10.20;99.90
59857;DHT22;45733;52.668;6.860;2023-04-01T05:02:53;10.20;99.90
59857;DHT22;45733;52.668;6.860;2023-04-01T05:05:18;10.40;99.90
59857;DHT22;45733;52.668;6.860;2023-04-01T05:07:44;10.20;99.90
59857;DHT22;45733;52.668;6.860;2023-04-01T05:10:10;10.40;99.90
59857;DHT22;45733;52.668;6.860;2023-04-01T05:12:36;10.40;99.90
59857;DHT22;45733;52.668;6.860;2023-04-01T05:15:07;10.40;99.90
59857;DHT22;45733;52.668;6.860;2023-04-01T05:17:33;10.40;99.90
59857;DHT22;45733;52.668;6.860;2023-04-01T05:19:59;10.20;99.90
59857;DHT22;45733;52.668;6.860;2023-04-01T05:22:25;10.40;99.90
59857;DHT22;45733;52.668;6.860;2023-04-01T05:24:51;10.40;99.90
59857;DHT22;45733;52.668;6.860;2023-04-01T05:27:17;10.30;99.90
59857;DHT22;45733;52.668;6.860;2023-04-01T05:29:42;10.20;99.90
59857;DHT22;45733;52.668;6.860;2023-04-01T05:32:08;10.50;99.90
59857;DHT22;45733;52.668;6.860;2023-04-01T05:34:34;10.30;99.90
59857;DHT22;45733;52.668;6.860;2023-04-01T05:36:59;10.40;99.90
59857;DHT22;45733;52.668;6.860;2023-04-01T05:39:25;10.30;99.90
59857;DHT22;45733;52.668;6.860;2023-04-01T05:41:51;10.50;99.90
59857;DHT22;45733;52.668;6.860;2023-04-01T05:44:17;10.50;99.90
59857;DHT22;45733;52.668;6.860;2023-04-01T05:46:42;10.40;99.90
59857;DHT22;45733;52.668;6.860;2023-04-01T05:49:08;10.30;99.90
59857;DHT22;45733;52.668;6.860;2023-04-01T05:51:34;10.30;99.90
59857;DHT22;45733;52.668;6.860;2023-04-01T05:54:00;10.50;99.90
59857;DHT22;45733;52.668;6.860;2023-04-01T05:56:25;10.50;99.90
59857;DHT22;45733;52.668;6.860;2023-04-01T05:58:53;10.30;99.90
59857;DHT22;45733;52.668;6.860;2023-04-01T06:01:20;10.50;99.90
59857;DHT22;45733;52.668;6.860;2023-04-01T06:03:46;10.60;99.90
59857;DHT22;45733;52.668;6.860;2023-04-01T06:06:15;10.60;99.90
59857;DHT22;45733;52.668;6.860;2023-04-01T06:08:42;10.40;99.90
59857;DHT22;45733;52.668;6.860;2023-04-01T06:11:17;10.40;99.90
59857;DHT22;45733;52.668;6.860;2023-04-01T06:19:42;10.60;99.90
59857;DHT22;45733;52.668;6.860;2023-04-01T06:22:19;10.50;99.90
59857;DHT22;45733;52.668;6.860;2023-04-01T06:27:55;10.60;99.90
59857;DHT22;45733;52.668;6.860;2023-04-01T06:30:38;10.60;99.90
59857;DHT22;45733;52.668;6.860;2023-04-01T06:36:15;10.50;99.90
59857;DHT22;45733;52.668;6.860;2023-04-01T06:44:42;10.80;99.90
59857;DHT22;45733;52.668;6.860;2023-04-01T06:55:02;10.70;99.90
59857;DHT22;45733;52.668;6.860;2023-04-01T06:57:38;10.60;99.90
59857;DHT22;45733;52.668;6.860;2023-04-01T07:00:31;10.60;99.90
59857;DHT22;45733;52.668;6.860;2023-04-01T07:05:30;10.70;99.90
59857;DHT22;45733;52.668;6.860;2023-04-01T07:07:59;10.70;99.90
59857;DHT22;45733;52.668;6.860;2023-04-01T07:10:48;10.90;99.90
59857;DHT22;45733;52.668;6.860;2023-04-01T07:13:24;10.90;99.90
59857;DHT22;45733;52.668;6.860;2023-04-01T07:16:07;10.90;99.90
59857;DHT22;45733;52.668;6.860;2023-04-01T07:18:52;10.90;99.90
59857;DHT22;45733;52.668;6.860;2023-04-01T07:23:50;10.80;99.90
59857;DHT22;45733;52.668;6.860;2023-04-01T07:26:21;10.80;99.90
59857;DHT22;45733;52.668;6.860;2023-04-01T07:28:48;10.70;99.90
59857;DHT22;45733;52.668;6.860;2023-04-01T07:31:30;10.80;99.90
59857;DHT22;45733;52.668;6.860;2023-04-01T07:34:12;10.90;99.90
59857;DHT22;45733;52.668;6.860;2023-04-01T07:36:47;10.80;99.90
59857;DHT22;45733;52.668;6.860;2023-04-01T07:47:11;10.80;99.90
59857;DHT22;45733;52.668;6.860;2023-04-01T07:49:59;10.90;99.90
59857;DHT22;45733;52.668;6.860;2023-04-01T08:01:19;11.00;99.90
59857;DHT22;45733;52.668;6.860;2023-04-01T08:11:57;10.90;99.90
59857;DHT22;45733;52.668;6.860;2023-04-01T08:15:28;11.00;99.90
59857;DHT22;45733;52.668;6.860;2023-04-01T08:20:37;10.90;99.90
59857;DHT22;45733;52.668;6.860;2023-04-01T08:31:09;11.30;99.90
59857;DHT22;45733;52.668;6.860;2023-04-01T08:33:37;11.10;99.90
59857;DHT22;45733;52.668;6.860;2023-04-01T08:36:24;11.20;99.90
59857;DHT22;45733;52.668;6.860;2023-04-01T08:39:05;11.30;99.90
59857;DHT22;45733;52.668;6.860;2023-04-01T08:50:36;11.40;99.90
59857;DHT22;45733;52.668;6.860;2023-04-01T08:58:51;11.30;99.90
59857;DHT22;45733;52.668;6.860;2023-04-01T09:01:26;11.50;99.90
59857;DHT22;45733;52.668;6.860;2023-04-01T09:31:26;11.60;99.90
59857;DHT22;45733;52.668;6.860;2023-04-01T09:37:17;11.70;99.90
59857;DHT22;45733;52.668;6.860;2023-04-01T09:42:53;11.80;99.90
59857;DHT22;45733;52.668;6.860;2023-04-01T09:45:37;11.90;99.90
59857;DHT22;45733;52.668;6.860;2023-04-01T09:48:21;11.60;99.90
59857;DHT22;45733;52.668;6.860;2023-04-01T09:54:36;11.50;99.90
59857;DHT22;45733;52.668;6.860;2023-04-01T10:19:20;11.50;99.90
59857;DHT22;45733;52.668;6.860;2023-04-01T10:42:16;12.10;99.90
59857;DHT22;45733;52.668;6.860;2023-04-01T10:56:15;11.80;99.90
59857;DHT22;45733;52.668;6.860;2023-04-01T11:02:18;11.80;99.90
59857;DHT22;45733;52.668;6.860;2023-04-01T11:16:29;11.90;99.90
59857;DHT22;45733;52.668;6.860;2023-04-01T11:28:01;11.90;99.90
59857;DHT22;45733;52.668;6.860;2023-04-01T11:55:06;12.00;99.90
59857;DHT22;45733;52.668;6.860;2023-04-01T12:03:46;12.10;99.90
59857;DHT22;45733;52.668;6.860;2023-04-01T12:06:25;12.20;99.90
59857;DHT22;45733;52.668;6.860;2023-04-01T12:12:20;12.20;99.90
59857;DHT22;45733;52.668;6.860;2023-04-01T12:15:17;12.10;99.90
59857;DHT22;45733;52.668;6.860;2023-04-01T12:23:29;12.20;99.90
59857;DHT22;45733;52.668;6.860;2023-04-01T12:42:18;12.30;99.90
59857;DHT22;45733;52.668;6.860;2023-04-01T12:55:52;11.90;99.90
59857;DHT22;45733;52.668;6.860;2023-04-01T12:58:39;11.70;99.90
59857;DHT22;45733;52.668;6.860;2023-04-01T13:06:22;11.60;99.90
59857;DHT22;45733;52.668;6.860;2023-04-01T13:19:47;11.20;99.90
59857;DHT22;45733;52.668;6.860;2023-04-01T13:22:21;11.20;99.90
59857;DHT22;45733;52.668;6.860;2023-04-01T13:24:58;11.40;99.90
59857;DHT22;45733;52.668;6.860;2023-04-01T13:27:30;11.30;99.90
59857;DHT22;45733;52.668;6.860;2023-04-01T13:41:30;11.30;99.90
59857;DHT22;45733;52.668;6.860;2023-04-01T13:58:10;11.10;99.90
59857;DHT22;45733;52.668;6.860;2023-04-01T14:01:04;11.10;99.90
59857;DHT22;45733;52.668;6.860;2023-04-01T14:12:06;11.00;99.90
59857;DHT22;45733;52.668;6.860;2023-04-01T14:14:55;10.90;99.90
59857;DHT22;45733;52.668;6.860;2023-04-01T14:17:32;11.10;99.90
59857;DHT22;45733;52.668;6.860;2023-04-01T14:23:24;11.00;99.90
59857;DHT22;45733;52.668;6.860;2023-04-01T14:26:12;10.90;99.90
59857;DHT22;45733;52.668;6.860;2023-04-01T14:31:48;10.90;99.90
59857;DHT22;45733;52.668;6.860;2023-04-01T14:34:43;10.90;99.90
59857;DHT22;45733;52.668;6.860;2023-04-01T14:37:23;11.00;99.90
59857;DHT22;45733;52.668;6.860;2023-04-01T14:40:04;10.90;99.90
59857;DHT22;45733;52.668;6.860;2023-04-01T14:50:25;11.10;99.90
59857;DHT22;45733;52.668;6.860;2023-04-01T14:55:59;10.80;99.90
59857;DHT22;45733;52.668;6.860;2023-04-01T15:01:17;10.60;99.90
59857;DHT22;45733;52.668;6.860;2023-04-01T15:15:23;10.50;99.90
59857;DHT22;45733;52.668;6.860;2023-04-01T15:23:34;10.30;99.90
59857;DHT22;45733;52.668;6.860;2023-04-01T15:38:11;10.00;99.90
59857;DHT22;45733;52.668;6.860;2023-04-01T15:41:16;10.10;99.90
59857;DHT22;45733;52.668;6.860;2023-04-01T15:49:04;9.90;99.90
59857;DHT22;45733;52.668;6.860;2023-04-01T16:02:48;9.80;99.90
59857;DHT22;45733;52.668;6.860;2023-04-01T16:22:12;9.60;99.90
59857;DHT22;45733;52.668;6.860;2023-04-01T16:25:07;9.60;99.90
59857;DHT22;45733;52.668;6.860;2023-04-01T16:33:27;9.50;99.90
59857;DHT22;45733;52.668;6.860;2023-04-01T16:36:09;9.40;99.90
59857;DHT22;45733;52.668;6.860;2023-04-01T16:38:40;9.50;99.90
59857;DHT22;45733;52.668;6.860;2023-04-01T16:41:29;9.30;99.90
59857;DHT22;45733;52.668;6.860;2023-04-01T16:44:08;9.30;99.90
59857;DHT22;45733;52.668;6.860;2023-04-01T16:46:46;9.40;99.90
59857;DHT22;45733;52.668;6.860;2023-04-01T16:54:55;9.10;99.90
59857;DHT22;45733;52.668;6.860;2023-04-01T16:57:31;9.10;99.90
59857;DHT22;45733;52.668;6.860;2023-04-01T17:06:01;8.80;99.90
59857;DHT22;45733;52.668;6.860;2023-04-01T17:08:44;8.80;99.90
59857;DHT22;45733;52.668;6.860;2023-04-01T17:20:04;8.90;99.90
59857;DHT22;45733;52.668;6.860;2023-04-01T17:22:44;8.80;99.90
59857;DHT22;45733;52.668;6.860;2023-04-01T17:27:51;8.70;99.90
59857;DHT22;45733;52.668;6.860;2023-04-01T17:30:24;8.80;99.90
59857;DHT22;45733;52.668;6.860;2023-04-01T17:36:01;8.80;99.90
59857;DHT22;45733;52.668;6.860;2023-04-01T17:41:31;8.70;99.90
59857;DHT22;45733;52.668;6.860;2023-04-01T17:53:09;8.50;99.90
59857;DHT22;45733;52.668;6.860;2023-04-01T17:58:19;8.50;99.90
59857;DHT22;45733;52.668;6.860;2023-04-01T18:06:34;8.40;99.90
59857;DHT22;45733;52.668;6.860;2023-04-01T18:15:27;8.40;99.90
59857;DHT22;45733;52.668;6.860;2023-04-01T18:20:58;8.20;99.90
59857;DHT22;45733;52.668;6.860;2023-04-01T18:23:36;8.10;99.90
59857;DHT22;45733;52.668;6.860;2023-04-01T18:26:22;8.20;99.90
59857;DHT22;45733;52.668;6.860;2023-04-01T18:28:54;8.10;99.90
59857;DHT22;45733;52.668;6.860;2023-04-01T18:31:26;8.10;99.90
59857;DHT22;45733;52.668;6.860;2023-04-01T18:34:15;8.10;99.90
59857;DHT22;45733;52.668;6.860;2023-04-01T18:36:51;8.10;99.90
59857;DHT22;45733;52.668;6.860;2023-04-01T18:39:46;8.10;99.90
59857;DHT22;45733;52.668;6.860;2023-04-01T18:45:26;8.00;99.90
59857;DHT22;45733;52.668;6.860;2023-04-01T18:50:55;8.00;99.90
59857;DHT22;45733;52.668;6.860;2023-04-01T18:56:06;7.80;99.90
59857;DHT22;45733;52.668;6.860;2023-04-01T19:08:54;7.70;99.90
59857;DHT22;45733;52.668;6.860;2023-04-01T19:11:59;7.80;99.90
59857;DHT22;45733;52.668;6.860;2023-04-01T19:15:02;7.70;99.90
59857;DHT22;45733;52.668;6.860;2023-04-01T19:20:40;7.70;99.90
59857;DHT22;45733;52.668;6.860;2023-04-01T19:25:57;7.60;99.90
59857;DHT22;45733;52.668;6.860;2023-04-01T19:28:54;7.50;99.90
59857;DHT22;45733;52.668;6.860;2023-04-01T19:31:58;7.50;99.90
59857;DHT22;45733;52.668;6.860;2023-04-01T19:37:37;7.50;99.90
59857;DHT22;45733;52.668;6.860;2023-04-01T19:45:46;7.30;99.90
59857;DHT22;45733;52.668;6.860;2023-04-01T19:54:34;7.30;99.90
59857;DHT22;45733;52.668;6.860;2023-04-01T20:05:55;7.20;99.90
59857;DHT22;45733;52.668;6.860;2023-04-01T20:08:54;7.10;99.90
59857;DHT22;45733;52.668;6.860;2023-04-01T20:17:23;7.10;99.90
59857;DHT22;45733;52.668;6.860;2023-04-01T20:20:23;7.00;99.90
59857;DHT22;45733;52.668;6.860;2023-04-01T20:23:00;7.00;99.90
59857;DHT22;45733;52.668;6.860;2023-04-01T20:25:31;7.00;99.90
59857;DHT22;45733;52.668;6.860;2023-04-01T20:50:29;6.90;99.90
59857;DHT22;45733;52.668;6.860;2023-04-01T20:53:28;6.90;99.90
59857;DHT22;45733;52.668;6.860;2023-04-01T20:56:06;6.90;99.90
59857;DHT22;45733;52.668;6.860;2023-04-01T20:58:51;6.90;99.90
59857;DHT22;45733;52.668;6.860;2023-04-01T21:22:50;6.70;99.90
59857;DHT22;45733;52.668;6.860;2023-04-01T21:25:37;6.70;99.90
59857;DHT22;45733;52.668;6.860;2023-04-01T21:39:00;6.50;99.90
59857;DHT22;45733;52.668;6.860;2023-04-01T21:50:01;6.50;99.90
59857;DHT22;45733;52.668;6.860;2023-04-01T21:55:44;6.50;99.90
59857;DHT22;45733;52.668;6.860;2023-04-01T22:01:14;6.50;99.90
59857;DHT22;45733;52.668;6.860;2023-04-01T22:07:03;6.50;99.90
59857;DHT22;45733;52.668;6.860;2023-04-01T22:09:43;6.50;99.90
59857;DHT22;45733;52.668;6.860;2023-04-01T22:12:11;6.40;99.90
59857;DHT22;45733;52.668;6.860;2023-04-01T22:14:54;6.40;99.90
59857;DHT22;45733;52.668;6.860;2023-04-01T22:18:16;6.40;99.90
59857;DHT22;45733;52.668;6.860;2023-04-01T22:23:21;6.30;99.90
59857;DHT22;45733;52.668;6.860;2023-04-01T22:31:09;6.40;99.90
59857;DHT22;45733;52.668;6.860;2023-04-01T22:34:17;6.30;99.90
59857;DHT22;45733;52.668;6.860;2023-04-01T22:36:56;6.30;99.90
59857;DHT22;45733;52.668;6.860;2023-04-01T22:39:36;6.30;99.90
59857;DHT22;45733;52.668;6.860;2023-04-01T22:42:25;6.30;99.90
59857;DHT22;45733;52.668;6.860;2023-04-01T22:45:06;6.20;99.90
59857;DHT22;45733;52.668;6.860;2023-04-01T22:53:37;6.30;99.90
59857;DHT22;45733;52.668;6.860;2023-04-01T22:56:11;6.30;99.90
59857;DHT22;45733;52.668;6.860;2023-04-01T22:58:45;6.30;99.90
59857;DHT22;45733;52.668;6.860;2023-04-01T23:01:21;6.20;99.90
59857;DHT22;45733;52.668;6.860;2023-04-01T23:03:49;6.20;99.90
59857;DHT22;45733;52.668;6.860;2023-04-01T23:06:29;6.20;99.90
59857;DHT22;45733;52.668;6.860;2023-04-01T23:22:59;6.10;99.90
59857;DHT22;45733;52.668;6.860;2023-04-01T23:36:02;6.00;99.90
59857;DHT22;45733;52.668;6.860;2023-04-01T23:38:38;6.00;99.90
59857;DHT22;45733;52.668;6.860;2023-04-01T23:41:09;5.90;99.90
59857;DHT22;45733;52.668;6.860;2023-04-01T23:43:43;6.00;99.90
59857;DHT22;45733;52.668;6.860;2023-04-01T23:46:11;6.00;99.90
59857;DHT22;45733;52.668;6.860;2023-04-01T23:48:40;6.00;99.90
59857;DHT22;45733;52.668;6.860;2023-04-01T23:51:35;6.00;99.90
59857;DHT22;45733;52.668;6.860;2023-04-01T23:54:13;6.00;99.90
59857;DHT22;45733;52.668;6.860;2023-04-01T23:56:45;6.00;99.90
59857;DHT22;45733;52.668;6.860;2023-04-01T23:59:23;6.00;99.90
